Time;durP1;ratioP1;P1;durP2;ratioP2;P2;SDS_P1;SDS_P2;PMS_P1;PMS_P2;Temp;Humidity;BMP_temperature;BMP_pressure;BME280_temperature;BME280_humidity;BME280_pressure;Samples;Min_cycle;Max_cycle;Signal;HPM_P1;HPM_P2
2023/03/16 00:00:12;;;;;;;9.85;2.13;;;9.90;99.90;;;9.11;100.00;101014.66;4150883;28;20040;-73
2023/03/16 00:02:13;;;;;;;7.18;1.80;;;9.90;99.90;;;9.14;100.00;101014.38;4150521;28;20544;-73
2023/03/16 00:04:14;;;;;;;5.95;1.83;;;9.90;99.90;;;9.16;100.00;101016.91;4151570;28;20034;-73
2023/03/16 00:06:15;;;;;;;10.25;2.38;;;9.90;99.90;;;9.21;100.00;101004.13;4151624;28;20489;-73
2023/03/16 00:08:17;;;;;;;7.53;3.05;;;10.00;99.90;;;9.20;100.00;101005.13;4150006;28;20030;-73
2023/03/16 00:10:18;;;;;;;6.45;1.85;;;10.00;99.90;;;9.20;100.00;101000.66;4150345;28;20464;-74
2023/03/16 00:12:19;;;;;;;10.07;2.38;;;10.00;99.90;;;9.19;100.00;100992.94;4151848;28;20030;-73
2023/03/16 00:14:21;;;;;;;10.65;2.55;;;10.00;99.90;;;9.26;100.00;100999.28;4151637;28;20038;-73
2023/03/16 00:16:22;;;;;;;9.23;2.80;;;10.00;99.90;;;9.23;100.00;100981.97;4151870;28;20080;-73
2023/03/16 00:18:28;;;;;;;8.43;2.47;;;10.00;99.90;;;9.23;100.00;100981.97;4143664;28;20026;-73
2023/03/16 00:20:29;;;;;;;7.18;2.83;;;10.00;99.90;;;9.25;100.00;100973.94;4150527;28;20034;-74
2023/03/16 00:22:30;;;;;;;8.63;2.95;;;10.00;99.90;;;9.28;100.00;100968.38;4151139;28;20044;-74
2023/03/16 00:24:31;;;;;;;8.85;2.80;;;10.00;99.90;;;9.26;100.00;100963.25;4151684;28;20033;-74
2023/03/16 00:26:32;;;;;;;5.95;1.90;;;10.00;99.90;;;9.26;100.00;100954.53;4151061;28;20398;-76
2023/03/16 00:28:35;;;;;;;4.88;1.75;;;10.00;99.90;;;9.21;100.00;100941.81;4150841;28;20030;-76
2023/03/16 00:30:35;;;;;;;7.18;2.05;;;10.00;99.90;;;9.22;100.00;100948.75;4147877;28;20026;-76
2023/03/16 00:32:38;;;;;;;5.88;1.88;;;10.00;99.90;;;9.25;100.00;100947.63;4152013;28;20041;-75
2023/03/16 00:34:39;;;;;;;8.23;1.70;;;10.00;99.90;;;9.25;100.00;100934.47;4151120;28;20018;-76
2023/03/16 00:36:41;;;;;;;8.60;2.00;;;10.00;99.90;;;9.27;100.00;100925.44;4150766;28;20106;-76
2023/03/16 00:38:47;;;;;;;6.28;1.80;;;10.10;99.90;;;9.27;100.00;100928.06;4154902;28;20018;-75
2023/03/16 00:40:50;;;;;;;5.63;1.35;;;10.10;99.90;;;9.26;100.00;100928.19;4154634;28;20085;-75
2023/03/16 00:42:50;;;;;;;5.53;1.52;;;10.10;99.90;;;9.21;100.00;100933.91;4155421;28;20027;-75
2023/03/16 00:45:00;;;;;;;5.32;1.85;;;10.00;99.90;;;9.14;100.00;100926.75;4155253;28;20478;-75
2023/03/16 00:47:03;;;;;;;10.15;2.33;;;10.00;99.90;;;9.00;100.00;100916.63;4153942;28;20022;-75
2023/03/16 00:49:04;;;;;;;5.55;1.80;;;9.90;99.90;;;8.86;100.00;100913.50;4154161;28;20036;-75
2023/03/16 00:51:11;;;;;;;6.53;1.58;;;9.80;99.90;;;8.75;100.00;100920.72;4155231;28;20022;-75
2023/03/16 00:53:12;;;;;;;9.80;1.63;;;9.70;99.90;;;8.64;100.00;100934.81;4154137;28;20026;-75
2023/03/16 00:55:13;;;;;;;6.88;2.10;;;9.50;99.90;;;8.50;100.00;100924.72;4155412;28;20033;-75
2023/03/16 00:57:20;;;;;;;11.77;1.70;;;9.40;99.90;;;8.34;100.00;100912.13;4153605;28;20021;-75
2023/03/16 00:59:21;;;;;;;7.38;2.10;;;9.20;99.90;;;8.22;100.00;100920.22;4154729;28;20024;-75
2023/03/16 01:01:22;;;;;;;8.50;3.85;;;9.10;99.90;;;8.14;100.00;100918.28;4153832;28;20030;-75
2023/03/16 01:03:23;;;;;;;9.50;4.70;;;9.00;99.90;;;8.06;100.00;100923.41;4170098;28;20065;-75
2023/03/16 01:05:24;;;;;;;10.30;4.78;;;8.90;99.90;;;7.96;100.00;100917.28;4155230;28;20084;-75
2023/03/16 01:07:25;;;;;;;10.15;3.05;;;8.80;99.90;;;7.92;100.00;100923.75;4153529;28;20033;-75
2023/03/16 01:09:26;;;;;;;13.85;3.08;;;8.80;99.90;;;7.89;100.00;100920.56;4155012;28;20417;-75
2023/03/16 01:11:27;;;;;;;10.52;3.75;;;8.70;99.90;;;7.81;100.00;100918.63;4154816;28;20028;-75
2023/03/16 01:13:28;;;;;;;7.63;2.63;;;8.70;99.90;;;7.77;100.00;100919.84;4154944;28;20099;-76
2023/03/16 01:15:33;;;;;;;8.95;2.13;;;8.60;99.90;;;7.70;100.00;100911.69;4153973;28;20417;-75
2023/03/16 01:17:34;;;;;;;11.35;2.50;;;8.60;99.90;;;7.63;100.00;100909.72;4153621;28;20168;-75
2023/03/16 01:19:37;;;;;;;6.28;2.38;;;8.50;99.90;;;7.55;100.00;100907.78;4154880;28;20481;-76
2023/03/16 01:21:39;;;;;;;6.55;2.50;;;8.40;99.90;;;7.55;100.00;100913.03;4153359;28;20034;-75
2023/03/16 01:23:42;;;;;;;8.68;2.55;;;8.40;99.90;;;7.49;100.00;100905.69;4154761;28;20049;-75
2023/03/16 01:25:51;;;;;;;8.90;2.50;;;8.30;99.90;;;7.44;100.00;100897.34;4137349;28;20093;-75
2023/03/16 01:27:52;;;;;;;7.90;2.40;;;8.30;99.90;;;7.36;100.00;100896.34;4168906;28;20021;-75
2023/03/16 01:29:53;;;;;;;11.82;2.28;;;8.20;99.90;;;7.33;100.00;100892.19;4153536;28;20076;-75
2023/03/16 01:31:54;;;;;;;7.07;2.45;;;8.20;99.90;;;7.29;100.00;100884.75;4154727;28;20117;-75
2023/03/16 01:33:55;;;;;;;10.25;2.67;;;8.10;99.90;;;7.22;100.00;100880.00;4169606;28;20424;-75
2023/03/16 01:36:04;;;;;;;7.68;1.83;;;8.10;99.90;;;7.18;100.00;100878.59;4136849;28;20026;-75
2023/03/16 01:38:05;;;;;;;7.90;2.25;;;8.00;99.90;;;7.16;100.00;100884.94;4153296;28;20044;-76
2023/03/16 01:40:07;;;;;;;7.20;1.90;;;8.00;99.90;;;7.10;100.00;100885.47;4154585;28;20057;-76
2023/03/16 01:42:09;;;;;;;8.32;2.13;;;7.90;99.90;;;7.03;100.00;100885.16;4153251;28;20109;-75
2023/03/16 01:44:21;;;;;;;7.82;1.92;;;7.90;99.90;;;7.01;100.00;100875.75;4153433;28;20026;-75
2023/03/16 01:46:28;;;;;;;8.77;2.17;;;7.80;99.90;;;6.96;100.00;100872.69;4153026;28;20053;-75
2023/03/16 01:48:42;;;;;;;13.65;2.00;;;7.80;99.90;;;6.92;100.00;100882.63;4150160;28;20022;-75
2023/03/16 01:50:44;;;;;;;8.63;2.53;;;7.70;99.90;;;6.89;100.00;100879.41;4141430;28;20026;-75
2023/03/16 01:52:45;;;;;;;8.93;2.45;;;7.70;99.90;;;6.83;100.00;100867.66;4145871;28;20433;-75
2023/03/16 01:54:55;;;;;;;6.13;2.40;;;7.60;99.90;;;6.81;100.00;100853.00;4149437;28;20029;-76
2023/03/16 01:57:22;;;;;;;10.07;2.17;;;7.60;99.90;;;6.71;100.00;100839.84;4151786;28;20109;-75
2023/03/16 01:59:29;;;;;;;6.32;2.60;;;7.50;99.90;;;6.69;100.00;100845.19;4147415;28;20021;-75
2023/03/16 02:01:31;;;;;;;7.20;2.72;;;7.50;99.90;;;6.67;100.00;100844.50;4152595;28;20032;-75
2023/03/16 02:03:35;;;;;;;8.60;3.08;;;7.50;99.90;;;6.65;100.00;100837.72;4152819;28;20026;-75
2023/03/16 02:05:58;;;;;;;6.80;2.58;;;7.50;99.90;;;6.64;100.00;100836.91;4154204;28;20030;-76
2023/03/16 02:08:00;;;;;;;6.70;2.45;;;7.50;99.90;;;6.57;100.00;100832.31;4142527;28;20093;-75
2023/03/16 02:10:03;;;;;;;7.60;2.70;;;7.50;99.90;;;6.54;100.00;100830.75;4137038;28;20076;-75
2023/03/16 02:12:05;;;;;;;7.22;3.22;;;7.40;99.90;;;6.53;100.00;100834.34;4152682;28;20038;-75
2023/03/16 02:14:10;;;;;;;6.57;2.75;;;7.40;99.90;;;6.47;100.00;100828.78;4147436;28;20054;-75
2023/03/16 02:16:18;;;;;;;6.65;2.53;;;7.30;99.90;;;6.41;100.00;100821.44;4152657;28;20045;-75
2023/03/16 02:18:21;;;;;;;6.20;2.42;;;7.30;99.90;;;6.36;100.00;100821.00;4142842;28;20038;-75
2023/03/16 02:20:41;;;;;;;6.88;2.53;;;7.20;99.90;;;6.34;100.00;100815.88;4154030;28;20029;-75
2023/03/16 02:22:47;;;;;;;7.38;2.22;;;7.20;99.90;;;6.31;100.00;100816.13;4168626;28;20120;-75
2023/03/16 02:24:48;;;;;;;10.68;3.08;;;7.20;99.90;;;6.22;100.00;100819.50;4152687;28;20104;-75
2023/03/16 02:27:04;;;;;;;3.83;2.28;;;7.10;99.90;;;6.23;100.00;100815.09;4152586;28;20018;-75
2023/03/16 02:29:47;;;;;;;5.63;2.90;;;7.10;99.90;;;6.18;100.00;100810.25;4153640;28;20029;-75
2023/03/16 02:31:48;;;;;;;6.30;2.28;;;7.00;99.90;;;6.15;100.00;100801.81;4153658;28;20028;-75
2023/03/16 02:33:51;;;;;;;7.10;2.72;;;7.00;99.90;;;6.15;100.00;100807.03;4153718;28;20030;-75
2023/03/16 02:35:52;;;;;;;11.20;2.83;;;7.00;99.90;;;6.13;100.00;100799.28;4153618;28;20485;-75
2023/03/16 02:37:53;;;;;;;7.63;2.58;;;7.00;99.90;;;6.11;100.00;100791.59;4153411;28;20100;-75
2023/03/16 02:39:54;;;;;;;8.63;2.55;;;6.90;99.90;;;6.07;100.00;100784.94;4153617;28;20061;-75
2023/03/16 02:41:55;;;;;;;5.57;2.50;;;6.90;99.90;;;6.08;100.00;100791.84;4153525;28;20037;-76
2023/03/16 02:44:40;;;;;;;5.57;1.95;;;6.90;99.90;;;6.06;100.00;100785.88;4152386;28;20529;-76
2023/03/16 02:46:42;;;;;;;5.88;2.63;;;6.90;99.90;;;6.02;100.00;100787.09;4149190;28;20041;-75
2023/03/16 02:49:35;;;;;;;4.55;2.17;;;6.90;99.90;;;6.04;100.00;100779.94;4152143;28;20034;-75
2023/03/16 02:51:35;;;;;;;6.93;2.35;;;6.90;99.90;;;6.04;100.00;100779.09;4151368;28;20073;-75
2023/03/16 02:53:36;;;;;;;6.50;2.20;;;6.90;99.90;;;6.10;100.00;100782.06;4152077;28;20036;-75
2023/03/16 02:55:37;;;;;;;3.05;1.85;;;6.90;99.90;;;6.09;100.00;100776.97;4153392;28;20501;-75
2023/03/16 02:57:38;;;;;;;11.00;2.42;;;7.00;99.90;;;6.13;100.00;100781.81;4151584;28;20034;-75
2023/03/16 02:59:40;;;;;;;7.72;2.63;;;7.00;99.90;;;6.17;100.00;100792.03;4151046;28;20022;-75
2023/03/16 03:01:41;;;;;;;4.93;1.88;;;7.00;99.90;;;6.21;100.00;100791.66;4150683;28;20022;-75
2023/03/16 03:03:42;;;;;;;13.15;3.28;;;7.10;99.90;;;6.25;100.00;100795.66;4153530;28;20037;-75
2023/03/16 03:05:43;;;;;;;10.10;2.80;;;7.10;99.90;;;6.25;100.00;100790.44;4153072;28;20092;-75
2023/03/16 03:07:44;;;;;;;6.65;2.40;;;7.10;99.90;;;6.32;100.00;100788.97;4135418;28;20022;-75
2023/03/16 03:09:45;;;;;;;9.45;2.60;;;7.20;99.90;;;6.36;100.00;100785.13;4152952;28;20037;-75
2023/03/16 03:11:46;;;;;;;9.60;2.83;;;7.20;99.90;;;6.41;100.00;100772.50;4153404;28;20516;-75
2023/03/16 03:13:47;;;;;;;6.25;2.25;;;7.30;99.90;;;6.45;100.00;100768.63;4153011;28;20042;-75
2023/03/16 03:15:48;;;;;;;6.30;2.65;;;7.30;99.90;;;6.51;100.00;100768.13;4135564;28;20030;-75
2023/03/16 03:17:49;;;;;;;8.60;2.78;;;7.30;99.90;;;6.57;100.00;100767.59;4152832;28;20045;-75
2023/03/16 03:19:50;;;;;;;7.22;2.55;;;7.40;99.90;;;6.64;100.00;100767.91;4153062;28;20394;-75
2023/03/16 03:21:55;;;;;;;6.15;2.00;;;7.40;99.90;;;6.67;100.00;100772.91;4152777;28;20042;-75
2023/03/16 03:23:56;;;;;;;9.73;3.08;;;7.50;99.90;;;6.72;100.00;100767.28;4153025;28;20105;-76
2023/03/16 03:25:58;;;;;;;9.40;2.72;;;7.50;99.90;;;6.74;100.00;100762.72;4152705;28;20493;-75
2023/03/16 03:28:01;;;;;;;8.32;2.33;;;7.60;99.90;;;6.77;100.00;100758.06;4151650;28;20025;-75
2023/03/16 03:30:03;;;;;;;9.13;2.95;;;7.60;99.90;;;6.80;100.00;100752.56;4152870;28;20030;-75
2023/03/16 03:32:04;;;;;;;4.65;2.47;;;7.60;99.90;;;6.86;100.00;100751.19;4151530;28;20049;-76
2023/03/16 03:34:05;;;;;;;9.90;2.70;;;7.70;99.90;;;6.88;100.00;100749.25;4150577;28;20054;-76
2023/03/16 03:36:07;;;;;;;8.35;2.10;;;7.70;99.90;;;6.87;100.00;100743.19;4152568;28;20036;-75
2023/03/16 03:38:08;;;;;;;5.47;2.25;;;7.70;99.90;;;6.89;100.00;100751.75;4148601;28;20041;-76
2023/03/16 03:40:12;;;;;;;5.45;1.80;;;7.70;99.90;;;6.87;100.00;100737.94;4152742;28;20049;-75
2023/03/16 03:42:13;;;;;;;4.53;1.92;;;7.70;99.90;;;6.86;100.00;100740.69;4151417;28;20036;-75
2023/03/16 03:44:14;;;;;;;7.35;2.20;;;7.70;99.90;;;6.87;100.00;100745.00;4151566;28;20037;-75
2023/03/16 03:46:14;;;;;;;5.15;1.77;;;7.70;99.90;;;6.77;100.00;100737.09;4152815;28;20034;-75
2023/03/16 03:48:15;;;;;;;4.43;2.35;;;7.60;99.90;;;6.74;100.00;100741.75;4151385;28;20029;-75
2023/03/16 03:50:17;;;;;;;6.63;2.30;;;7.60;99.90;;;6.67;100.00;100733.59;4167668;28;20030;-75
2023/03/16 03:52:18;;;;;;;9.10;3.40;;;7.50;99.90;;;6.60;100.00;100724.59;4152415;28;20401;-75
2023/03/16 03:54:18;;;;;;;6.80;2.80;;;7.50;99.90;;;6.49;100.00;100728.13;4152566;28;20033;-76
2023/03/16 03:56:20;;;;;;;9.73;2.47;;;7.40;99.90;;;6.45;100.00;100723.28;4152491;28;20485;-75
2023/03/16 03:58:21;;;;;;;10.57;3.95;;;7.30;99.90;;;6.39;100.00;100729.03;4151150;28;20037;-75
2023/03/16 04:00:22;;;;;;;10.93;4.05;;;7.30;99.90;;;6.35;100.00;100715.38;4151287;28;20481;-75
2023/03/16 04:02:23;;;;;;;10.07;2.80;;;7.20;99.90;;;6.29;100.00;100700.16;4151159;28;20041;-75
2023/03/16 04:04:23;;;;;;;8.18;3.78;;;7.20;99.90;;;6.25;100.00;100701.38;4151488;28;20030;-75
2023/03/16 04:06:24;;;;;;;11.65;3.38;;;7.10;99.90;;;6.22;100.00;100709.50;4151994;28;20115;-75
2023/03/16 04:08:25;;;;;;;8.93;3.15;;;7.10;99.90;;;6.13;100.00;100715.50;4152135;28;20033;-75
2023/03/16 04:10:30;;;;;;;7.32;2.30;;;7.00;99.90;;;6.10;100.00;100716.59;4137122;28;20030;-75
2023/03/16 04:12:30;;;;;;;4.40;2.42;;;7.00;99.90;;;6.02;100.00;100697.25;4152260;28;20474;-76
2023/03/16 04:14:32;;;;;;;7.18;2.80;;;7.00;99.90;;;6.00;100.00;100691.31;4152114;28;20112;-75
2023/03/16 04:16:33;;;;;;;5.13;2.08;;;6.90;99.90;;;5.96;100.00;100689.91;4151414;28;20081;-75
2023/03/16 04:18:40;;;;;;;9.75;2.95;;;6.90;99.90;;;5.95;100.00;100683.00;4142945;28;20089;-75
2023/03/16 04:20:41;;;;;;;7.95;3.10;;;6.80;99.90;;;5.92;100.00;100680.63;4152505;28;20037;-75
2023/03/16 04:22:42;;;;;;;5.15;2.40;;;6.80;99.90;;;5.89;100.00;100680.88;4151948;28;20091;-75
2023/03/16 04:24:43;;;;;;;4.95;2.25;;;6.80;99.90;;;5.83;100.00;100670.88;4152223;28;20038;-76
2023/03/16 04:26:44;;;;;;;5.32;2.55;;;6.70;99.90;;;5.77;100.00;100677.47;4151075;28;20034;-75
2023/03/16 04:28:46;;;;;;;4.15;1.95;;;6.70;99.90;;;5.75;100.00;100678.56;4151127;28;20030;-75
2023/03/16 04:30:46;;;;;;;8.32;2.80;;;6.60;99.90;;;5.68;100.00;100670.38;4152152;28;20103;-75
2023/03/16 04:32:47;;;;;;;6.45;2.08;;;6.60;99.90;;;5.65;100.00;100672.41;4150398;28;20026;-75
2023/03/16 04:34:48;;;;;;;2.60;1.70;;;6.60;99.90;;;5.62;100.00;100662.19;4167591;28;20043;-76
2023/03/16 04:36:52;;;;;;;3.17;2.00;;;6.50;99.90;;;5.61;100.00;100671.84;4150701;28;20017;-75
2023/03/16 04:38:53;;;;;;;8.05;2.00;;;6.50;99.90;;;5.56;100.00;100664.38;4150929;28;20027;-75
2023/03/16 04:40:55;;;;;;;13.68;2.45;;;6.50;99.90;;;5.57;100.00;100666.03;4167396;28;20030;-75
2023/03/16 04:42:56;;;;;;;6.18;2.25;;;6.40;99.90;;;5.52;100.00;100652.50;4152174;28;20030;-75
2023/03/16 04:44:57;;;;;;;7.97;3.03;;;6.40;99.90;;;5.54;100.00;100653.19;4151247;28;20033;-75
2023/03/16 04:46:58;;;;;;;7.07;2.85;;;6.40;99.90;;;5.49;100.00;100642.28;4151184;28;20034;-75
2023/03/16 04:48:59;;;;;;;8.52;3.00;;;6.40;99.90;;;5.52;100.00;100644.66;4134645;28;20070;-76
2023/03/16 04:51:02;;;;;;;4.35;2.42;;;6.40;99.90;;;5.50;100.00;100640.47;4151878;28;20026;-75
2023/03/16 04:53:03;;;;;;;5.95;2.53;;;6.40;99.90;;;5.47;100.00;100641.56;4134757;28;20031;-75
2023/03/16 04:55:05;;;;;;;7.20;2.70;;;6.40;99.90;;;5.48;100.00;100639.78;4150324;28;20109;-75
2023/03/16 04:57:07;;;;;;;8.52;3.05;;;6.40;99.90;;;5.52;100.00;100641.22;4147591;28;20097;-75
2023/03/16 04:59:08;;;;;;;9.70;3.00;;;6.40;99.90;;;5.53;100.00;100646.28;4143564;28;20489;-75
2023/03/16 05:01:09;;;;;;;5.95;2.97;;;6.40;99.90;;;5.59;100.00;100634.50;4152027;28;20030;-75
2023/03/16 05:03:10;;;;;;;10.52;3.70;;;6.40;99.90;;;5.58;100.00;100631.03;4151933;28;20030;-75
2023/03/16 05:05:10;;;;;;;12.32;3.92;;;6.50;99.90;;;5.67;100.00;100628.63;4150796;28;20061;-75
2023/03/16 05:07:11;;;;;;;13.07;4.50;;;6.50;99.90;;;5.74;100.00;100635.84;4146736;28;20029;-75
2023/03/16 05:09:12;;;;;;;9.07;4.97;;;6.60;99.90;;;5.80;100.00;100634.50;4144814;28;20026;-75
2023/03/16 05:11:13;;;;;;;8.55;4.70;;;6.60;99.90;;;5.83;100.00;100636.84;4151780;28;20022;-75
2023/03/16 05:13:14;;;;;;;11.52;4.22;;;6.70;99.90;;;5.82;100.00;100632.59;4151791;28;20406;-75
2023/03/16 05:15:15;;;;;;;10.73;3.95;;;6.70;99.90;;;5.92;100.00;100634.34;4151895;28;20045;-75
2023/03/16 05:17:16;;;;;;;8.93;3.47;;;6.70;99.90;;;5.92;100.00;100638.75;4150767;28;20022;-75
2023/03/16 05:19:17;;;;;;;8.88;4.43;;;6.80;99.90;;;5.89;100.00;100637.22;4151850;28;20045;-75
2023/03/16 05:21:18;;;;;;;7.63;3.20;;;6.70;99.90;;;5.87;100.00;100633.06;4150299;28;20041;-75
2023/03/16 05:23:20;;;;;;;7.72;3.17;;;6.70;99.90;;;5.81;100.00;100626.53;4167770;28;20539;-75
2023/03/16 05:25:21;;;;;;;8.05;3.47;;;6.70;99.90;;;5.83;100.00;100639.47;4153600;28;20034;-75
2023/03/16 05:27:22;;;;;;;10.73;3.83;;;6.70;99.90;;;5.86;100.00;100639.25;4154699;28;20478;-75
2023/03/16 05:29:24;;;;;;;10.52;4.18;;;6.70;99.90;;;5.86;100.00;100636.63;4153427;28;20033;-75
2023/03/16 05:31:26;;;;;;;14.80;3.97;;;6.70;99.90;;;5.87;100.00;100640.91;4153045;28;20029;-75
2023/03/16 05:33:26;;;;;;;6.97;3.58;;;6.70;99.90;;;5.83;100.00;100635.06;4153610;28;20021;-75
2023/03/16 05:35:27;;;;;;;7.45;3.40;;;6.70;99.90;;;5.84;100.00;100630.69;4169873;28;20056;-76
2023/03/16 05:37:29;;;;;;;9.88;3.92;;;6.70;99.90;;;5.82;100.00;100629.97;4150546;28;20026;-75
2023/03/16 05:39:30;;;;;;;7.25;3.00;;;6.70;99.90;;;5.80;100.00;100629.25;4153475;28;20081;-75
2023/03/16 05:41:30;;;;;;;8.48;3.03;;;6.70;99.90;;;5.79;100.00;100627.63;4154673;28;20025;-75
2023/03/16 05:43:33;;;;;;;9.18;3.00;;;6.70;99.90;;;5.77;100.00;100635.59;4154623;28;20048;-75
2023/03/16 05:45:34;;;;;;;6.18;2.75;;;6.70;99.90;;;5.76;100.00;100633.13;4154307;28;20036;-75
2023/03/16 05:47:36;;;;;;;9.43;3.70;;;6.60;99.90;;;5.72;100.00;100631.69;4154606;28;20101;-75
2023/03/16 05:49:37;;;;;;;7.63;3.15;;;6.60;99.90;;;5.72;100.00;100627.28;4153468;28;20028;-75
2023/03/16 05:51:37;;;;;;;8.93;3.00;;;6.60;99.90;;;5.70;100.00;100633.63;4153104;28;20030;-75
2023/03/16 05:53:38;;;;;;;5.30;2.63;;;6.60;99.90;;;5.64;100.00;100618.44;4154190;28;20061;-75
2023/03/16 05:55:40;;;;;;;6.60;2.63;;;6.60;99.90;;;5.65;100.00;100620.06;4153223;28;20057;-75
2023/03/16 05:57:41;;;;;;;11.35;3.40;;;6.50;99.90;;;5.62;100.00;100615.09;4169609;28;20029;-75
2023/03/16 05:59:42;;;;;;;6.20;2.83;;;6.50;99.90;;;5.62;100.00;100612.47;4153294;28;20040;-75
2023/03/16 06:01:43;;;;;;;5.50;2.60;;;6.50;99.90;;;5.61;100.00;100618.69;4166961;28;20022;-75
2023/03/16 06:03:48;;;;;;;5.00;2.78;;;6.40;99.90;;;5.61;100.00;100619.53;4143546;28;20481;-75
2023/03/16 06:05:49;;;;;;;6.38;2.50;;;6.40;99.90;;;5.59;100.00;100610.94;4152721;28;20081;-75
2023/03/16 06:07:51;;;;;;;6.60;3.08;;;6.50;99.90;;;5.61;100.00;100608.22;4136158;28;20037;-75
2023/03/16 06:09:52;;;;;;;5.38;2.63;;;6.50;99.90;;;5.61;100.00;100609.06;4153957;28;20072;-75
2023/03/16 06:11:53;;;;;;;3.38;2.45;;;6.50;99.90;;;5.64;100.00;100606.19;4154478;28;20061;-75
2023/03/16 06:13:56;;;;;;;7.93;2.65;;;6.50;99.90;;;5.65;100.00;100605.19;4154136;28;20046;-76
2023/03/16 06:15:58;;;;;;;5.20;2.80;;;6.50;99.90;;;5.67;100.00;100605.09;4153668;28;20057;-75
2023/03/16 06:17:59;;;;;;;4.03;2.35;;;6.50;99.90;;;5.68;100.00;100593.66;4153837;28;20026;-75
2023/03/16 06:20:00;;;;;;;5.95;2.60;;;6.50;99.90;;;5.58;100.00;100594.41;4136444;28;20034;-75
2023/03/16 06:22:02;;;;;;;12.32;3.28;;;6.50;99.90;;;5.63;100.00;100599.28;4152585;28;20057;-75
2023/03/16 06:24:03;;;;;;;4.32;2.53;;;6.50;99.90;;;5.64;100.00;100600.13;4152617;28;20069;-75
2023/03/16 06:26:04;;;;;;;7.22;2.92;;;6.50;99.90;;;5.63;100.00;100594.03;4153612;28;20022;-75
2023/03/16 06:28:06;;;;;;;5.82;2.90;;;6.50;99.90;;;5.61;100.00;100585.50;4148060;28;20081;-75
2023/03/16 06:30:10;;;;;;;6.35;2.97;;;6.50;99.90;;;5.61;100.00;100575.03;4169112;28;20112;-76
2023/03/16 06:32:12;;;;;;;4.55;2.45;;;6.50;99.90;;;5.59;100.00;100575.16;4136057;28;20029;-75
2023/03/16 06:34:13;;;;;;;6.15;2.85;;;6.50;99.90;;;5.64;100.00;100564.31;4153026;28;20464;-75
2023/03/16 06:36:14;;;;;;;7.60;3.60;;;6.50;99.90;;;5.65;100.00;100565.13;4152183;28;20034;-75
2023/03/16 06:38:16;;;;;;;5.30;2.50;;;6.50;99.90;;;5.72;100.00;100561.03;4168822;28;20025;-75
2023/03/16 06:40:17;;;;;;;5.78;2.60;;;6.50;99.90;;;5.72;100.00;100543.56;4153614;28;20036;-75
2023/03/16 06:42:18;;;;;;;4.95;3.28;;;6.60;99.90;;;5.74;100.00;100543.41;4152468;28;20022;-75
2023/03/16 06:44:20;;;;;;;5.93;3.13;;;6.60;99.90;;;5.77;100.00;100558.84;4135981;28;20034;-75
2023/03/16 06:46:20;;;;;;;8.63;3.63;;;6.60;99.90;;;5.88;100.00;100566.69;4153534;28;20026;-75
2023/03/16 06:48:21;;;;;;;9.40;2.53;;;6.70;99.90;;;5.87;100.00;100563.22;4141685;28;20482;-75
2023/03/16 06:50:22;;;;;;;7.32;2.90;;;6.70;99.90;;;5.89;100.00;100563.09;4152477;28;20022;-75
2023/03/16 06:52:23;;;;;;;4.57;2.88;;;6.70;99.90;;;5.89;100.00;100555.22;4153241;28;20117;-75
2023/03/16 06:54:24;;;;;;;6.68;2.72;;;6.70;99.90;;;5.93;100.00;100562.72;4152243;28;20493;-75
2023/03/16 06:56:26;;;;;;;5.90;2.05;;;6.70;99.90;;;5.96;100.00;100565.06;4153411;28;20030;-75
2023/03/16 06:58:27;;;;;;;4.25;2.00;;;6.80;99.90;;;5.98;100.00;100560.50;4153173;28;20026;-75
2023/03/16 07:00:29;;;;;;;4.50;2.00;;;6.80;99.90;;;6.05;100.00;100555.59;4152826;28;20490;-75
2023/03/16 07:02:31;;;;;;;4.93;1.80;;;6.80;99.90;;;6.13;100.00;100553.97;4152236;28;20061;-75
2023/03/16 07:04:32;;;;;;;3.70;2.00;;;6.90;99.90;;;6.18;100.00;100552.75;4151929;28;20042;-75
2023/03/16 07:06:33;;;;;;;5.47;2.25;;;7.00;99.90;;;6.27;100.00;100549.34;4152737;28;20037;-75
2023/03/16 07:08:35;;;;;;;5.82;2.50;;;7.10;99.90;;;6.35;100.00;100542.47;4153252;28;20034;-75
2023/03/16 07:10:36;;;;;;;7.53;2.60;;;7.10;99.90;;;6.47;100.00;100533.53;4135686;28;20028;-75
2023/03/16 07:12:36;;;;;;;5.88;2.30;;;7.30;99.90;;;6.67;100.00;100545.69;4153149;28;20030;-75
2023/03/16 07:14:38;;;;;;;4.63;2.15;;;7.40;99.90;;;6.78;100.00;100551.78;4152855;28;20041;-75
2023/03/16 07:16:38;;;;;;;4.75;2.70;;;7.50;99.90;;;6.89;100.00;100552.50;4149947;28;20104;-75
2023/03/16 07:18:43;;;;;;;4.65;2.63;;;7.60;99.90;;;6.98;100.00;100556.91;4143395;28;20080;-75
2023/03/16 07:20:43;;;;;;;6.20;3.42;;;7.70;99.90;;;7.04;100.00;100548.50;4147801;28;20029;-75
2023/03/16 07:22:45;;;;;;;3.15;2.40;;;7.80;99.90;;;7.13;100.00;100552.09;4148390;28;20026;-75
2023/03/16 07:24:45;;;;;;;6.78;1.90;;;7.90;99.90;;;7.27;100.00;100559.53;4151767;28;20049;-75
2023/03/16 07:26:46;;;;;;;5.68;1.75;;;8.00;99.90;;;7.30;100.00;100554.00;4152838;28;20018;-76
2023/03/16 07:28:47;;;;;;;5.13;2.60;;;8.00;99.90;;;7.38;100.00;100555.94;4152903;28;20033;-75
2023/03/16 07:30:49;;;;;;;3.17;1.48;;;8.10;99.90;;;7.45;100.00;100554.38;4152730;28;20032;-75
2023/03/16 07:32:51;;;;;;;3.25;1.40;;;8.20;99.90;;;7.51;100.00;100549.41;4151486;28;20030;-75
2023/03/16 07:34:52;;;;;;;3.67;1.70;;;8.30;99.90;;;7.59;100.00;100552.16;4134917;28;20026;-76
2023/03/16 07:36:53;;;;;;;5.80;2.30;;;8.40;99.90;;;7.75;100.00;100555.03;4146523;28;20087;-76
2023/03/16 07:38:54;;;;;;;8.52;1.70;;;8.50;99.90;;;7.94;100.00;100555.94;4152654;28;20038;-75
2023/03/16 07:40:54;;;;;;;6.18;1.63;;;8.60;99.90;;;8.05;100.00;100550.50;4152868;28;20029;-76
2023/03/16 07:42:56;;;;;;;5.97;1.42;;;8.80;99.90;;;8.24;100.00;100553.06;4151584;28;20397;-76
2023/03/16 07:44:56;;;;;;;4.40;1.50;;;8.90;99.90;;;8.39;100.00;100546.38;4152568;28;20033;-76
2023/03/16 07:46:57;;;;;;;2.40;1.30;;;9.10;99.90;;;8.55;100.00;100537.81;4150873;28;20474;-76
2023/03/16 07:48:58;;;;;;;3.97;1.63;;;9.20;99.90;;;8.69;100.00;100529.44;4152695;28;20052;-76
2023/03/16 07:50:59;;;;;;;3.45;1.48;;;9.40;99.90;;;8.87;100.00;100533.72;4152552;28;20453;-76
2023/03/16 07:53:00;;;;;;;4.07;1.48;;;9.50;99.90;;;9.00;100.00;100522.00;4152552;28;20026;-76
2023/03/16 07:55:01;;;;;;;5.43;1.55;;;9.70;99.90;;;9.07;100.00;100525.69;4151518;28;20402;-76
2023/03/16 07:57:02;;;;;;;3.97;1.40;;;9.80;99.90;;;9.14;100.00;100524.09;4151279;28;20018;-76
2023/03/16 07:59:03;;;;;;;3.70;1.75;;;9.90;99.90;;;9.26;100.00;100523.69;4145335;28;20080;-76
2023/03/16 08:01:04;;;;;;;3.00;1.27;;;10.00;99.90;;;9.38;100.00;100526.91;4145483;28;20374;-76
2023/03/16 08:03:05;;;;;;;2.38;1.30;;;10.10;99.90;;;9.44;100.00;100534.19;4152382;28;20558;-76
2023/03/16 08:05:09;;;;;;;1.92;0.93;;;10.20;99.90;;;9.54;100.00;100539.38;4151316;28;20022;-76
2023/03/16 08:07:11;;;;;;;1.95;1.17;;;10.30;99.90;;;9.65;100.00;100531.19;4152178;28;20017;-76
2023/03/16 08:09:12;;;;;;;5.20;1.27;;;10.40;99.90;;;9.75;100.00;100529.28;4151241;28;20037;-75
2023/03/16 08:11:13;;;;;;;3.55;1.52;;;10.50;99.90;;;9.80;100.00;100524.38;4151141;28;20029;-75
2023/03/16 08:13:14;;;;;;;3.67;1.52;;;10.60;99.90;;;9.86;100.00;100527.22;4151011;28;20026;-76
2023/03/16 08:15:16;;;;;;;2.20;1.13;;;10.70;99.90;;;9.97;100.00;100526.94;4167543;28;20034;-76
2023/03/16 08:17:17;;;;;;;3.33;1.48;;;10.70;99.90;;;10.10;100.00;100515.13;4144066;28;20576;-76
2023/03/16 08:19:19;;;;;;;2.75;1.23;;;10.90;99.90;;;10.29;100.00;100528.09;4149804;28;20022;-76
2023/03/16 08:21:20;;;;;;;4.20;1.23;;;11.00;99.90;;;10.44;100.00;100513.31;4152182;28;20034;-76
2023/03/16 08:23:23;;;;;;;2.42;1.17;;;11.20;99.90;;;10.54;100.00;100514.03;4151198;28;20061;-76
2023/03/16 08:25:25;;;;;;;3.00;1.75;;;11.30;99.90;;;10.66;100.00;100510.09;4151033;28;20038;-76
2023/03/16 08:27:28;;;;;;;2.42;1.15;;;11.40;99.90;;;10.79;100.00;100502.50;4144448;28;20021;-76
2023/03/16 08:29:29;;;;;;;3.72;1.13;;;11.50;99.90;;;10.91;100.00;100495.94;4152433;28;20081;-76
2023/03/16 08:31:33;;;;;;;3.03;1.10;;;11.70;99.90;;;11.02;100.00;100503.50;4151017;28;20072;-76
2023/03/16 08:33:34;;;;;;;3.97;1.05;;;11.80;99.90;;;11.08;100.00;100492.31;4146830;28;20022;-76